Time;durP1;ratioP1;P1;durP2;ratioP2;P2;SDS_P1;SDS_P2;PMS_P1;PMS_P2;Temp;Humidity;BMP_temperature;BMP_pressure;BME280_temperature;BME280_humidity;BME280_pressure;Samples;Min_cycle;Max_cycle;Signal;HPM_P1;HPM_P2
2021/11/29 00:00:46;;;;;;;;;8.00;5.00;;;;;3.58;72.31;99968.56;5016272;28;45672;-80
2021/11/29 00:03:14;;;;;;;;;7.25;5.50;;;;;3.19;72.41;99894.66;5015575;28;45676;-81
2021/11/29 00:05:39;;;;;;;;;9.75;7.00;;;;;3.57;72.28;99962.56;5015496;28;45648;-80
2021/11/29 00:08:05;;;;;;;;;6.75;6.50;;;;;3.53;72.59;99957.63;5015952;28;45712;-80
2021/11/29 00:10:33;;;;;;;;;9.25;8.75;;;;;3.53;72.54;99955.88;4997067;28;47165;-79
2021/11/29 00:12:59;;;;;;;;;8.00;7.50;;;;;3.59;72.29;99967.66;5015643;28;46019;-80
2021/11/29 00:15:25;;;;;;;;;7.00;5.00;;;;;3.60;72.27;99969.34;5015413;28;46039;-81
2021/11/29 00:17:50;;;;;;;;;7.00;6.00;;;;;3.60;72.21;99969.34;4997513;28;45638;-80
2021/11/29 00:20:17;;;;;;;;;10.25;8.50;;;;;3.58;72.45;99969.41;5014412;28;45554;-80
2021/11/29 00:22:42;;;;;;;;;7.25;7.25;;;;;3.56;72.27;99962.66;5015239;28;45616;-79
2021/11/29 00:25:09;;;;;;;;;9.25;8.00;;;;;3.59;72.31;99972.84;5015768;28;45646;-80
2021/11/29 00:30:55;;;;;;;;;9.00;8.00;;;;;3.56;72.59;99976.44;5015299;28;45697;-80
2021/11/29 00:33:21;;;;;;;;;9.25;8.25;;;;;3.51;72.30;99978.41;5015293;28;46449;-81
2021/11/29 00:35:47;;;;;;;;;9.25;8.00;;;;;3.05;72.57;99899.72;5015232;28;45798;-79
2021/11/29 00:38:12;;;;;;;;;13.25;10.25;;;;;3.46;72.60;99977.81;5015456;28;45769;-81
2021/11/29 00:40:39;;;;;;;;;10.75;8.75;;;;;3.40;72.58;99967.81;5015239;28;45707;-78
2021/11/29 00:43:05;;;;;;;;;11.00;5.50;;;;;3.51;72.40;99991.34;5014968;28;46602;-82
2021/11/29 00:45:31;;;;;;;;;10.25;8.00;;;;;3.49;72.75;99979.41;5014724;28;45613;-81
2021/11/29 00:47:56;;;;;;;;;8.00;7.75;;;;;3.47;72.75;99986.41;5015048;28;45571;-80
2021/11/29 00:50:22;;;;;;;;;7.50;6.50;;;;;3.47;72.81;99983.81;5015083;28;46380;-81
2021/11/29 00:52:48;;;;;;;;;6.00;6.00;;;;;3.44;72.85;99982.25;5015157;28;45659;-80
2021/11/29 00:55:16;;;;;;;;;7.25;7.25;;;;;3.46;72.81;99998.53;5015159;28;45493;-80
2021/11/29 01:01:03;;;;;;;;;8.75;7.00;;;;;3.40;72.80;99992.84;5014725;28;45473;-81
2021/11/29 01:03:29;;;;;;;;;10.00;10.00;;;;;3.30;72.97;99984.69;4997026;28;46288;-80
2021/11/29 01:05:55;;;;;;;;;12.50;8.50;;;;;3.34;72.61;100005.19;5014166;28;45615;-80
2021/11/29 01:08:20;;;;;;;;;7.25;7.25;;;;;3.26;73.12;99994.38;5015077;28;45626;-80
2021/11/29 01:10:46;;;;;;;;;9.00;8.00;;;;;3.23;72.85;99983.34;5014905;28;45598;-81
2021/11/29 01:16:33;;;;;;;;;6.50;6.50;;;;;3.37;73.01;100012.78;5014647;28;45735;-80
2021/11/29 01:18:58;;;;;;;;;10.00;8.00;;;;;2.92;73.00;99955.59;5015159;28;45619;-81
2021/11/29 01:21:24;;;;;;;;;10.00;7.00;;;;;3.34;72.83;100019.88;5014829;28;46487;-80
2021/11/29 01:23:49;;;;;;;;;7.75;7.00;;;;;3.31;73.01;100017.44;5015016;28;46202;-81
2021/11/29 01:26:15;;;;;;;;;7.25;7.00;;;;;3.33;73.04;100029.41;5016822;28;45636;-79
2021/11/29 01:28:41;;;;;;;;;7.75;7.00;;;;;3.12;72.91;99993.41;4999748;28;45801;-80
2021/11/29 01:31:07;;;;;;;;;8.00;7.25;;;;;3.30;73.08;100023.53;4999490;28;47546;-80
2021/11/29 01:33:33;;;;;;;;;8.50;7.00;;;;;3.30;73.19;100028.69;5016629;28;45620;-80
2021/11/29 01:35:59;;;;;;;;;7.50;7.00;;;;;3.30;72.93;100029.53;4996151;28;46061;-80
2021/11/29 01:38:24;;;;;;;;;6.00;6.00;;;;;3.12;72.96;100007.19;5014289;28;45581;-81
2021/11/29 01:40:50;;;;;;;;;7.75;6.00;;;;;3.23;73.10;100037.72;5014028;28;45890;-82
2021/11/29 01:47:21;;;;;;;;;7.00;7.00;;;;;3.26;73.16;100050.47;5013036;28;45950;-80
2021/11/29 01:49:47;;;;;;;;;5.50;5.00;;;;;3.11;73.34;100033.97;5015121;28;45674;-81
2021/11/29 01:52:12;;;;;;;;;8.00;7.00;;;;;3.11;73.47;100038.31;5014195;28;46126;-80
2021/11/29 01:54:38;;;;;;;;;7.00;5.00;;;;;3.12;73.38;100042.59;5014563;28;46012;-80
2021/11/29 01:57:04;;;;;;;;;9.50;7.00;;;;;3.23;73.60;100061.84;5013864;28;45885;-81
2021/11/29 01:59:29;;;;;;;;;7.50;5.00;;;;;3.25;73.48;100057.41;4996238;28;45969;-80
2021/11/29 02:01:55;;;;;;;;;4.75;4.00;;;;;3.19;73.41;100056.88;5014163;28;45531;-82
2021/11/29 02:04:21;;;;;;;;;11.75;7.00;;;;;3.23;73.52;100050.66;5013995;28;46329;-80
2021/11/29 02:06:46;;;;;;;;;7.00;7.00;;;;;2.85;73.42;100001.63;5013832;28;45565;-80
2021/11/29 02:09:12;;;;;;;;;6.00;5.00;;;;;3.25;73.13;100072.94;5014067;28;45698;-83
2021/11/29 02:11:39;;;;;;;;;7.75;7.00;;;;;3.16;73.41;100054.44;5014196;28;46757;-80
2021/11/29 02:14:05;;;;;;;;;5.00;5.00;;;;;3.18;73.39;100053.47;5013913;28;46602;-80
2021/11/29 02:16:34;;;;;;;;;5.50;5.00;;;;;3.15;73.39;100060.53;5013814;28;45649;-80
2021/11/29 02:19:00;;;;;;;;;8.00;5.50;;;;;3.14;73.35;100056.25;5014195;28;45676;-80
2021/11/29 02:21:31;;;;;;;;;7.00;6.50;;;;;3.18;73.59;100068.16;5012491;28;45654;-83
2021/11/29 02:24:02;;;;;;;;;6.50;4.25;;;;;3.17;73.66;100067.31;5014067;28;46204;-81
2021/11/29 02:26:30;;;;;;;;;5.00;5.00;;;;;3.09;73.32;100066.84;5013325;28;45813;-82
2021/11/29 02:29:10;;;;;;;;;6.00;5.00;;;;;3.08;73.44;100062.56;5014254;28;45712;-81
2021/11/29 02:31:39;;;;;;;;;8.75;5.50;;;;;3.07;73.63;100065.25;5014080;28;45577;-81
2021/11/29 02:34:11;;;;;;;;;4.00;3.00;;;;;3.13;73.78;100086.47;4996029;28;47434;-82
2021/11/29 02:36:37;;;;;;;;;5.00;4.25;;;;;3.10;73.89;100083.22;5014018;28;45886;-81
2021/11/29 02:39:06;;;;;;;;;6.25;4.75;;;;;3.13;73.61;100091.66;5013850;28;45713;-81
2021/11/29 02:41:31;;;;;;;;;4.25;3.50;;;;;3.12;73.50;100082.22;5013886;28;46810;-82
2021/11/29 02:43:57;;;;;;;;;6.75;5.00;;;;;3.13;74.01;100086.47;5014156;28;46048;-82
2021/11/29 02:46:22;;;;;;;;;5.00;4.00;;;;;3.12;73.79;100100.34;5008085;28;45679;-81
2021/11/29 02:48:49;;;;;;;;;5.00;5.00;;;;;2.97;73.77;100057.94;4997480;28;45615;-82
2021/11/29 02:51:37;;;;;;;;;7.00;4.00;;;;;2.99;74.24;100073.38;4997269;28;45667;-81
2021/11/29 02:54:13;;;;;;;;;4.00;4.00;;;;;3.09;73.94;100082.38;4996851;28;46528;-81
2021/11/29 02:56:40;;;;;;;;;6.00;5.00;;;;;2.97;73.90;100065.69;4997240;28;45617;-79
2021/11/29 02:59:10;;;;;;;;;7.75;6.00;;;;;3.09;73.98;100081.53;4999503;28;45856;-81
2021/11/29 03:01:40;;;;;;;;;4.50;4.50;;;;;3.02;73.91;100073.25;4999640;28;45516;-81
2021/11/29 03:04:06;;;;;;;;;6.50;4.00;;;;;2.99;73.88;100082.88;4999603;28;46161;-81
2021/11/29 03:06:32;;;;;;;;;5.00;5.00;;;;;2.92;73.73;100066.81;4999460;28;45569;-80
2021/11/29 03:08:57;;;;;;;;;2.50;1.00;;;;;2.98;74.13;100079.47;4997175;28;45739;-79
2021/11/29 03:11:26;;;;;;;;;4.75;3.50;;;;;3.11;74.04;100098.66;4996563;28;46492;-81
2021/11/29 03:17:13;;;;;;;;;6.00;5.00;;;;;3.26;74.00;100116.03;4996564;28;45668;-81
2021/11/29 03:19:39;;;;;;;;;5.00;4.00;;;;;3.31;73.83;100116.63;4995502;28;45953;-81
2021/11/29 03:22:08;;;;;;;;;4.00;2.00;;;;;3.26;73.77;100099.66;4996509;28;45600;-81
2021/11/29 03:24:35;;;;;;;;;4.25;4.25;;;;;3.27;73.78;100109.94;4996410;28;46101;-79
2021/11/29 03:27:01;;;;;;;;;7.00;5.00;;;;;3.34;73.63;100123.44;4996109;28;45858;-81
2021/11/29 03:29:29;;;;;;;;;6.00;4.25;;;;;3.29;74.02;100120.22;4978751;28;45699;-80
2021/11/29 03:31:59;;;;;;;;;4.00;4.00;;;;;3.22;73.95;100109.34;4996435;28;45547;-81
2021/11/29 03:34:27;;;;;;;;;4.50;3.50;;;;;3.37;73.88;100125.84;4996427;28;46089;-80
2021/11/29 03:36:52;;;;;;;;;4.00;4.00;;;;;3.24;73.90;100117.84;4978464;28;45567;-80
2021/11/29 03:39:21;;;;;;;;;4.50;4.50;;;;;3.12;73.81;100100.34;4996654;28;45616;-79
2021/11/29 03:41:51;;;;;;;;;5.00;4.50;;;;;3.29;73.86;100130.59;4996330;28;45794;-81
2021/11/29 03:47:37;;;;;;;;;4.50;4.50;;;;;3.15;73.65;100112.28;5002443;28;45775;-81
2021/11/29 03:50:04;;;;;;;;;5.50;5.00;;;;;3.43;73.88;100154.03;4996471;28;45538;-82
2021/11/29 03:52:29;;;;;;;;;5.50;4.00;;;;;3.38;73.99;100150.84;4996022;28;45675;-80
2021/11/29 03:54:55;;;;;;;;;4.25;3.50;;;;;3.44;73.75;100154.88;4995920;28;45674;-80
2021/11/29 03:57:20;;;;;;;;;7.25;5.00;;;;;3.29;74.13;100146.13;4996184;28;45575;-81
2021/11/29 03:59:46;;;;;;;;;3.50;2.50;;;;;3.30;73.57;100146.03;4996055;28;45592;-81
2021/11/29 04:02:12;;;;;;;;;4.00;4.00;;;;;3.41;73.98;100165.38;4995923;28;46283;-80
2021/11/29 04:04:38;;;;;;;;;4.25;3.50;;;;;3.35;74.17;100167.34;4996233;28;46013;-80
2021/11/29 04:07:04;;;;;;;;;3.00;2.00;;;;;3.26;73.78;100154.84;4995970;28;45521;-81
2021/11/29 04:09:29;;;;;;;;;4.00;3.50;;;;;3.49;74.06;100177.03;4995847;28;45584;-79
2021/11/29 04:11:56;;;;;;;;;4.00;2.50;;;;;3.48;73.57;100185.72;4995833;28;45654;-80
2021/11/29 04:17:42;;;;;;;;;4.00;3.00;;;;;3.45;74.05;100190.22;4995711;28;45612;-80
2021/11/29 04:20:10;;;;;;;;;3.00;2.00;;;;;3.38;73.80;100187.06;4996108;28;45818;-79
2021/11/29 04:22:37;;;;;;;;;4.00;4.00;;;;;3.46;73.96;100202.22;4995623;28;45554;-81
2021/11/29 04:25:04;;;;;;;;;4.25;4.00;;;;;3.46;73.90;100199.63;4995479;28;47024;-80
2021/11/29 04:27:30;;;;;;;;;4.00;4.00;;;;;3.44;73.72;100207.50;4995674;28;45577;-80
2021/11/29 04:29:56;;;;;;;;;6.50;3.50;;;;;3.44;73.85;100210.09;4995801;28;45566;-81
2021/11/29 04:32:21;;;;;;;;;4.75;4.75;;;;;3.43;73.93;100207.56;4998518;28;45663;-79
2021/11/29 04:34:47;;;;;;;;;4.00;2.00;;;;;3.38;74.18;100207.78;4998486;28;45934;-80
2021/11/29 04:37:14;;;;;;;;;5.00;4.00;;;;;3.35;73.87;100220.88;4980348;28;45622;-80
2021/11/29 04:39:39;;;;;;;;;6.00;4.00;;;;;3.35;74.16;100205.34;4997743;28;45506;-79
2021/11/29 04:42:05;;;;;;;;;3.50;3.50;;;;;3.34;74.12;100208.84;4995658;28;45857;-79
2021/11/29 04:47:52;;;;;;;;;4.00;2.50;;;;;3.07;74.19;100179.94;4997040;28;45855;-80
2021/11/29 04:50:18;;;;;;;;;4.00;4.00;;;;;3.30;74.10;100225.41;4995480;28;45556;-81
2021/11/29 04:52:43;;;;;;;;;2.00;1.00;;;;;3.28;74.18;100233.28;4995236;28;45567;-81
2021/11/29 04:55:11;;;;;;;;;4.25;3.50;;;;;3.22;74.39;100223.22;4995016;28;45571;-80
2021/11/29 04:57:36;;;;;;;;;7.50;4.00;;;;;3.26;74.38;100235.09;4995281;28;45468;-80
2021/11/29 05:00:04;;;;;;;;;4.00;4.00;;;;;3.01;74.27;100213.88;4995471;28;45753;-80
2021/11/29 05:02:30;;;;;;;;;4.25;3.50;;;;;3.19;73.97;100240.63;4995009;28;48263;-79
2021/11/29 05:04:57;;;;;;;;;5.00;4.00;;;;;3.22;74.50;100250.84;4995124;28;46006;-80
2021/11/29 05:07:22;;;;;;;;;4.25;2.00;;;;;3.14;74.57;100235.66;4994119;28;45818;-80
2021/11/29 05:09:48;;;;;;;;;4.50;2.00;;;;;3.07;75.00;100231.69;4995221;28;45451;-80
2021/11/29 05:12:15;;;;;;;;;2.50;2.00;;;;;2.95;74.59;100222.75;4995153;28;46804;-79
2021/11/29 05:18:01;;;;;;;;;5.00;3.50;;;;;3.17;74.90;100260.56;4994858;28;45866;-81
2021/11/29 05:20:27;;;;;;;;;2.00;2.00;;;;;2.91;74.98;100230.72;4994844;28;45648;-80
2021/11/29 05:22:53;;;;;;;;;2.00;2.00;;;;;3.17;74.80;100274.34;4994949;28;46466;-80
2021/11/29 05:25:19;;;;;;;;;4.00;4.00;;;;;3.16;75.03;100282.19;4994691;28;45435;-82
2021/11/29 05:27:45;;;;;;;;;1.00;1.00;;;;;3.01;74.48;100255.28;4994734;28;45837;-78
2021/11/29 05:30:12;;;;;;;;;2.50;2.00;;;;;3.16;74.56;100280.44;4995147;28;45595;-81
2021/11/29 05:32:37;;;;;;;;;5.00;2.00;;;;;3.07;74.91;100282.59;4994672;28;45658;-79
2021/11/29 05:35:03;;;;;;;;;6.50;3.50;;;;;3.20;74.70;100300.09;4994500;28;45891;-79
2021/11/29 05:37:30;;;;;;;;;3.00;3.00;;;;;2.94;74.79;100265.06;4994748;28;45600;-82
2021/11/29 05:39:55;;;;;;;;;3.25;3.00;;;;;3.10;74.83;100293.66;4994854;28;45628;-79
2021/11/29 05:42:21;;;;;;;;;3.50;2.00;;;;;3.04;74.90;100291.34;4994526;28;45682;-81
2021/11/29 05:48:08;;;;;;;;;3.50;2.00;;;;;2.84;74.58;100270.72;4995869;28;45845;-81
2021/11/29 05:50:34;;;;;;;;;7.75;5.00;;;;;3.16;74.83;100336.53;4994746;28;45934;-80
2021/11/29 05:52:59;;;;;;;;;4.00;4.00;;;;;3.15;75.00;100337.44;4976700;28;46983;-81
2021/11/29 05:55:24;;;;;;;;;2.50;2.00;;;;;3.14;74.92;100335.75;4994604;28;46061;-77
2021/11/29 05:57:50;;;;;;;;;4.25;4.00;;;;;3.02;75.21;100318.22;4994343;28;45755;-79
2021/11/29 06:00:18;;;;;;;;;6.00;4.50;;;;;3.19;75.16;100331.19;4995322;28;45656;-80
2021/11/29 06:02:44;;;;;;;;;2.50;2.00;;;;;3.05;75.08;100312.88;4977246;28;47208;-80
2021/11/29 06:05:11;;;;;;;;;5.00;4.00;;;;;3.26;74.96;100342.97;4978871;28;47435;-79
2021/11/29 06:07:37;;;;;;;;;1.75;1.25;;;;;3.14;74.83;100331.41;4995991;28;45828;-80
2021/11/29 06:10:05;;;;;;;;;5.00;3.00;;;;;3.14;74.93;100325.41;4996008;28;45647;-81
2021/11/29 06:12:30;;;;;;;;;4.00;4.00;;;;;3.13;74.70;100336.69;4995907;28;45757;-80
2021/11/29 06:18:17;;;;;;;;;4.75;4.00;;;;;2.98;74.90;100322.66;4995428;28;45505;-79
2021/11/29 06:20:42;;;;;;;;;2.00;2.00;;;;;3.16;75.10;100350.31;4998119;28;45811;-79
2021/11/29 06:23:10;;;;;;;;;4.50;3.50;;;;;3.17;75.16;100351.16;4997644;28;46473;-80
2021/11/29 06:25:37;;;;;;;;;2.50;2.00;;;;;3.28;74.94;100370.47;4997041;28;46177;-80
2021/11/29 06:28:04;;;;;;;;;7.25;4.50;;;;;3.20;75.12;100364.78;4997588;28;45534;-80
2021/11/29 06:30:29;;;;;;;;;4.00;4.00;;;;;3.29;75.11;100379.91;4997561;28;45548;-81
2021/11/29 06:32:55;;;;;;;;;4.25;4.00;;;;;3.21;75.45;100378.56;4997622;28;45527;-81
2021/11/29 06:35:20;;;;;;;;;3.25;2.00;;;;;3.22;75.47;100394.03;4997399;28;46281;-81
2021/11/29 06:37:52;;;;;;;;;2.00;2.00;;;;;3.23;75.01;100395.72;4997584;28;45589;-80
2021/11/29 06:40:18;;;;;;;;;1.75;1.75;;;;;3.24;75.13;100405.16;4997639;28;45589;-80
2021/11/29 06:42:43;;;;;;;;;2.00;2.00;;;;;3.10;75.12;100393.72;4997532;28;46540;-80
2021/11/29 06:48:30;;;;;;;;;4.00;3.50;;;;;3.26;75.54;100428.38;4999869;28;45869;-80
2021/11/29 06:50:56;;;;;;;;;6.75;4.50;;;;;3.05;75.14;100388.75;4997687;28;45588;-79
2021/11/29 06:53:23;;;;;;;;;6.50;4.75;;;;;3.29;75.09;100434.25;4997844;28;46520;-80
2021/11/29 06:55:50;;;;;;;;;4.75;4.00;;;;;3.27;75.36;100422.31;4997292;28;46030;-80
2021/11/29 06:58:16;;;;;;;;;4.75;2.00;;;;;3.31;75.15;100436.78;4997198;28;45602;-80
2021/11/29 07:04:06;;;;;;;;;2.00;2.00;;;;;3.32;75.18;100443.66;4997825;28;46037;-81
2021/11/29 07:06:31;;;;;;;;;2.00;2.00;;;;;3.22;75.23;100435.47;4998692;28;47081;-80
2021/11/29 07:08:56;;;;;;;;;2.00;2.00;;;;;3.28;75.21;100455.06;4998248;28;45616;-81
2021/11/29 07:11:22;;;;;;;;;4.00;2.00;;;;;3.33;75.06;100471.22;4999514;28;45744;-80
2021/11/29 07:13:47;;;;;;;;;5.00;4.75;;;;;3.15;75.38;100439.22;4999947;28;45785;-81
2021/11/29 07:16:14;;;;;;;;;4.00;2.00;;;;;3.38;75.17;100467.53;5000586;28;45570;-80
2021/11/29 07:18:39;;;;;;;;;4.00;2.00;;;;;3.33;75.03;100474.66;5018653;28;45119;-80
2021/11/29 07:21:05;;;;;;;;;4.00;3.00;;;;;2.95;75.28;100406.44;5022094;28;45204;-80
2021/11/29 07:23:31;;;;;;;;;4.25;2.50;;;;;3.41;74.96;100491.59;5023247;28;45415;-81
2021/11/29 07:25:56;;;;;;;;;4.00;2.00;;;;;3.42;75.25;100507.06;5021305;28;45678;-80
2021/11/29 07:28:22;;;;;;;;;5.00;4.00;;;;;3.44;75.07;100500.09;5022506;28;44977;-79
2021/11/29 07:34:10;;;;;;;;;4.00;2.00;;;;;3.49;75.21;100518.00;5015203;28;45648;-79
2021/11/29 07:36:36;;;;;;;;;3.50;2.00;;;;;3.45;75.24;100500.94;5017809;28;45574;-80
2021/11/29 07:39:04;;;;;;;;;4.00;4.00;;;;;3.49;74.98;100513.66;5011207;28;45811;-79
2021/11/29 07:41:29;;;;;;;;;2.00;2.00;;;;;3.50;75.02;100511.94;5012997;28;45571;-78
2021/11/29 07:43:54;;;;;;;;;2.00;2.00;;;;;3.52;74.96;100510.94;5017106;28;45458;-78
2021/11/29 07:46:20;;;;;;;;;5.00;4.75;;;;;3.55;74.89;100523.75;5000321;28;45979;-79
2021/11/29 07:48:45;;;;;;;;;5.50;4.75;;;;;3.30;74.91;100490.31;4999049;28;45624;-80
2021/11/29 07:51:10;;;;;;;;;4.00;4.00;;;;;3.57;74.80;100526.25;4998484;28;45861;-80
2021/11/29 07:53:36;;;;;;;;;2.00;2.00;;;;;3.56;74.83;100533.22;4997410;28;45434;-78
2021/11/29 07:56:01;;;;;;;;;4.50;3.00;;;;;3.44;74.98;100512.19;4996378;28;46419;-78
2021/11/29 07:58:27;;;;;;;;;5.00;5.00;;;;;3.60;75.02;100537.34;4996532;28;45525;-75
2021/11/29 08:04:14;;;;;;;;;3.50;3.50;;;;;3.72;74.79;100538.56;4995413;28;45725;-77
2021/11/29 08:06:40;;;;;;;;;6.00;4.00;;;;;3.75;74.63;100525.47;4995135;28;47082;-77
2021/11/29 08:09:05;;;;;;;;;4.25;4.00;;;;;3.82;74.43;100544.19;4995349;28;45470;-76
2021/11/29 08:11:31;;;;;;;;;4.00;3.50;;;;;3.86;74.45;100545.72;4995326;28;45570;-74
2021/11/29 08:13:56;;;;;;;;;4.50;4.50;;;;;3.87;74.49;100543.06;4994942;28;47517;-73
2021/11/29 08:16:22;;;;;;;;;2.50;2.50;;;;;3.79;74.41;100534.78;4994715;28;46461;-77
2021/11/29 08:18:47;;;;;;;;;4.00;4.00;;;;;3.93;74.58;100560.09;4994990;28;46008;-76
2021/11/29 08:21:13;;;;;;;;;4.75;4.75;;;;;3.98;74.25;100571.09;4976339;28;45840;-74
2021/11/29 08:23:38;;;;;;;;;6.50;4.25;;;;;3.99;74.41;100570.19;4994683;28;46226;-75
2021/11/29 08:26:04;;;;;;;;;7.75;5.00;;;;;3.99;74.54;100572.78;4994489;28;45660;-77
2021/11/29 08:28:31;;;;;;;;;4.00;3.50;;;;;4.00;73.88;100574.44;4994640;28;45598;-76
2021/11/29 08:34:18;;;;;;;;;4.25;2.50;;;;;4.06;74.47;100575.00;4994684;28;46059;-75
2021/11/29 08:36:44;;;;;;;;;4.00;4.00;;;;;4.14;74.07;100588.50;4994275;28;46818;-77
2021/11/29 08:39:10;;;;;;;;;6.00;4.25;;;;;4.21;73.83;100589.88;4976917;28;45642;-79
2021/11/29 08:41:35;;;;;;;;;4.00;4.00;;;;;4.23;74.04;100574.25;4993286;28;46053;-76
2021/11/29 08:44:03;;;;;;;;;6.50;5.00;;;;;4.34;73.96;100592.75;4994335;28;46004;-75
2021/11/29 08:49:50;;;;;;;;;7.50;5.00;;;;;4.30;73.73;100586.03;5001826;28;45947;-75
2021/11/29 08:52:15;;;;;;;;;6.25;4.00;;;;;4.29;73.54;100584.34;4995084;28;45668;-76
2021/11/29 08:54:41;;;;;;;;;5.00;4.00;;;;;4.33;73.40;100583.28;4994895;28;46334;-76
2021/11/29 08:57:08;;;;;;;;;4.75;4.00;;;;;4.28;73.71;100579.22;4994680;28;46411;-75
2021/11/29 08:59:33;;;;;;;;;5.00;4.50;;;;;4.31;73.65;100592.91;4994869;28;45605;-75
2021/11/29 09:01:58;;;;;;;;;5.50;4.75;;;;;4.22;73.66;100576.00;4977245;28;45855;-77
2021/11/29 09:04:24;;;;;;;;;4.75;4.00;;;;;4.32;73.25;100599.75;4994769;28;47710;-77
2021/11/29 09:06:49;;;;;;;;;4.50;4.50;;;;;4.31;73.52;100607.63;4994338;28;47009;-78
2021/11/29 09:09:15;;;;;;;;;8.25;7.00;;;;;4.23;73.82;100600.19;4994450;28;45855;-75
2021/11/29 09:11:42;;;;;;;;;7.00;5.00;;;;;4.27;73.57;100606.91;4995477;28;45596;-77
2021/11/29 09:14:08;;;;;;;;;4.00;4.00;;;;;4.31;73.53;100620.59;4996028;28;46365;-77
2021/11/29 09:19:55;;;;;;;;;6.00;5.00;;;;;4.22;73.68;100612.31;4995704;28;45908;-76
2021/11/29 09:22:20;;;;;;;;;7.00;5.00;;;;;4.29;73.76;100620.66;4995141;28;45738;-79
2021/11/29 09:24:46;;;;;;;;;7.50;5.00;;;;;4.31;73.60;100630.97;4994226;28;46281;-76
2021/11/29 09:27:11;;;;;;;;;6.25;6.00;;;;;4.34;73.87;100626.47;4994430;28;47434;-76
2021/11/29 09:29:36;;;;;;;;;7.00;6.50;;;;;4.38;74.07;100640.97;4994311;28;45587;-77
2021/11/29 09:32:04;;;;;;;;;9.00;7.25;;;;;4.33;73.60;100621.34;4994558;28;45744;-77
2021/11/29 09:34:31;;;;;;;;;8.00;7.00;;;;;4.48;73.40;100650.00;4993847;28;45641;-75
2021/11/29 09:36:57;;;;;;;;;6.75;6.75;;;;;4.44;73.64;100635.50;4993470;28;46214;-77
2021/11/29 09:39:22;;;;;;;;;7.50;6.50;;;;;4.56;73.43;100644.50;4994749;28;45624;-79
2021/11/29 09:41:48;;;;;;;;;6.50;6.50;;;;;4.60;73.34;100652.06;4994479;28;45541;-78
2021/11/29 09:44:14;;;;;;;;;10.00;6.00;;;;;4.59;73.29;100647.78;4994146;28;47412;-79
2021/11/29 09:50:04;;;;;;;;;3.50;3.50;;;;;4.72;73.12;100668.81;4995282;28;45593;-77
2021/11/29 09:52:30;;;;;;;;;5.00;5.00;;;;;4.70;73.01;100657.66;4994187;28;45510;-77
2021/11/29 09:54:55;;;;;;;;;10.00;8.00;;;;;4.74;73.04;100669.59;4997077;28;46526;-79
2021/11/29 09:57:20;;;;;;;;;4.50;4.50;;;;;4.78;72.90;100676.34;4979746;28;47219;-78
2021/11/29 09:59:47;;;;;;;;;9.00;8.00;;;;;4.84;73.01;100673.47;4997675;28;46150;-79
2021/11/29 10:02:13;;;;;;;;;7.75;5.50;;;;;4.85;72.97;100666.50;4997609;28;45553;-78
2021/11/29 10:04:49;;;;;;;;;6.75;6.25;;;;;4.92;72.83;100676.53;4997493;28;45644;-78
2021/11/29 10:07:34;;;;;;;;;8.00;5.25;;;;;4.96;72.70;100692.81;4997621;28;46304;-78
2021/11/29 10:10:19;;;;;;;;;6.25;5.50;;;;;4.98;72.78;100680.59;4979744;28;45820;-79
2021/11/29 10:12:48;;;;;;;;;8.75;6.50;;;;;4.99;72.78;100679.69;4996654;28;45688;-78
2021/11/29 10:15:22;;;;;;;;;5.50;5.50;;;;;5.05;72.53;100682.84;4995908;28;47699;-80
2021/11/29 10:17:51;;;;;;;;;9.00;6.00;;;;;5.03;72.56;100684.66;4997016;28;46305;-79
2021/11/29 10:20:16;;;;;;;;;6.00;6.00;;;;;5.12;72.09;100698.13;4996998;28;45504;-77
2021/11/29 10:23:00;;;;;;;;;7.00;4.50;;;;;5.07;71.78;100693.16;4996463;28;45745;-76
2021/11/29 10:25:26;;;;;;;;;4.75;4.25;;;;;5.15;71.85;100691.03;4996544;28;46676;-78
2021/11/29 10:27:52;;;;;;;;;5.75;4.25;;;;;5.15;71.71;100697.97;4996556;28;47307;-78
2021/11/29 10:30:24;;;;;;;;;9.25;5.50;;;;;5.18;71.48;100692.66;4996758;28;45922;-79
2021/11/29 10:32:50;;;;;;;;;5.75;5.75;;;;;5.18;71.88;100684.84;4996660;28;45467;-77
2021/11/29 10:35:28;;;;;;;;;8.00;6.25;;;;;5.24;72.26;100687.13;4996447;28;46323;-76
2021/11/29 10:37:55;;;;;;;;;6.50;6.00;;;;;5.28;72.04;100694.72;4996421;28;47365;-75
2021/11/29 10:40:20;;;;;;;;;8.00;6.50;;;;;5.28;71.73;100692.13;4996653;28;45593;-77
2021/11/29 10:42:47;;;;;;;;;6.00;6.00;;;;;5.30;71.82;100686.84;4996630;28;45714;-76
2021/11/29 10:45:24;;;;;;;;;6.00;6.00;;;;;5.37;71.32;100711.63;4996662;28;46604;-78
2021/11/29 10:47:53;;;;;;;;;7.50;6.50;;;;;5.38;71.26;100703.75;4996311;28;46263;-76
2021/11/29 10:50:28;;;;;;;;;9.00;8.00;;;;;5.41;71.29;100702.75;4996657;28;45602;-77
2021/11/29 10:53:08;;;;;;;;;9.75;9.00;;;;;5.43;71.15;100712.19;4999261;28;45913;-78
2021/11/29 10:55:59;;;;;;;;;8.75;7.50;;;;;5.43;71.43;100700.94;4999156;28;45732;-75
2021/11/29 10:58:27;;;;;;;;;7.75;5.50;;;;;5.38;71.62;100690.78;4998757;28;46209;-76
2021/11/29 11:00:55;;;;;;;;;8.50;6.50;;;;;5.44;71.81;100698.28;4998559;28;45624;-79
2021/11/29 11:03:20;;;;;;;;;8.25;6.00;;;;;5.36;71.51;100683.94;4996747;28;45537;-77
2021/11/29 11:06:01;;;;;;;;;9.25;5.75;;;;;5.54;71.22;100714.25;4995148;28;47454;-78
2021/11/29 11:08:34;;;;;;;;;9.75;8.50;;;;;5.48;71.45;100696.34;4996307;28;47427;-78
2021/11/29 11:11:00;;;;;;;;;10.25;8.00;;;;;5.58;71.17;100725.31;4996384;28;45870;-77
2021/11/29 11:13:26;;;;;;;;;8.75;6.00;;;;;5.61;71.70;100720.00;4996148;28;46081;-77
2021/11/29 11:15:51;;;;;;;;;6.00;6.00;;;;;5.69;71.72;100710.91;4978245;28;46472;-80
2021/11/29 11:18:17;;;;;;;;;8.75;7.50;;;;;5.79;71.62;100704.31;4996082;28;45984;-79
2021/11/29 11:20:42;;;;;;;;;6.00;6.00;;;;;5.92;70.98;100708.94;4996376;28;46168;-74
2021/11/29 11:23:07;;;;;;;;;8.25;8.00;;;;;5.94;71.19;100699.31;4995086;28;45689;-78
2021/11/29 11:25:35;;;;;;;;;6.00;6.00;;;;;6.01;70.67;100703.28;4995865;28;46554;-77
2021/11/29 11:28:05;;;;;;;;;7.50;6.00;;;;;6.00;70.74;100705.03;4986994;28;46985;-77
2021/11/29 11:30:34;;;;;;;;;9.25;8.00;;;;;6.07;70.61;100718.56;4995882;28;46079;-77
2021/11/29 11:33:07;;;;;;;;;10.50;8.50;;;;;6.07;70.64;100710.78;4996009;28;45795;-79
2021/11/29 11:35:38;;;;;;;;;7.00;6.00;;;;;6.05;70.11;100718.63;4995474;28;46627;-79
2021/11/29 11:38:06;;;;;;;;;6.75;5.25;;;;;6.11;70.13;100717.50;4995914;28;46468;-78
2021/11/29 11:40:40;;;;;;;;;9.25;8.50;;;;;6.06;70.17;100716.88;4996172;28;45793;-78
2021/11/29 11:43:09;;;;;;;;;9.25;8.25;;;;;6.05;70.16;100739.44;4995958;28;45806;-74
2021/11/29 11:45:37;;;;;;;;;8.25;7.50;;;;;5.98;70.03;100722.50;4995420;28;45556;-76
2021/11/29 11:48:04;;;;;;;;;5.00;5.00;;;;;6.02;70.26;100736.16;4995410;28;47103;-75
2021/11/29 11:50:35;;;;;;;;;6.00;5.00;;;;;5.88;70.01;100714.28;4995225;28;45617;-78
2021/11/29 11:53:04;;;;;;;;;5.00;5.00;;;;;5.99;70.47;100728.53;4995383;28;45897;-77
2021/11/29 11:55:33;;;;;;;;;8.00;6.00;;;;;5.98;70.57;100730.28;4994686;28;45721;-78
2021/11/29 11:58:02;;;;;;;;;5.75;5.00;;;;;6.02;70.04;100738.75;4994685;28;46006;-79
2021/11/29 12:00:33;;;;;;;;;2.00;2.00;;;;;6.05;70.19;100738.59;4994754;28;45815;-79
2021/11/29 12:03:08;;;;;;;;;6.00;6.00;;;;;6.08;70.07;100754.91;4994748;28;45618;-79
2021/11/29 12:06:18;;;;;;;;;8.50;7.00;;;;;6.07;70.15;100745.41;4994459;28;46419;-79
2021/11/29 12:08:46;;;;;;;;;5.00;5.00;;;;;6.10;69.82;100742.66;4994359;28;46448;-78
2021/11/29 12:11:27;;;;;;;;;6.00;6.00;;;;;6.13;70.09;100752.91;4994485;28;45772;-79
2021/11/29 12:14:07;;;;;;;;;7.00;5.50;;;;;6.16;69.85;100765.75;4994983;28;45536;-79
2021/11/29 12:16:44;;;;;;;;;6.50;5.00;;;;;6.10;68.71;100744.44;4994241;28;46427;-81
2021/11/29 12:19:28;;;;;;;;;9.50;6.00;;;;;6.14;68.93;100762.41;4994365;28;46888;-80
2021/11/29 12:21:58;;;;;;;;;6.00;5.75;;;;;6.16;69.14;100759.72;4995004;28;45870;-77
2021/11/29 12:24:35;;;;;;;;;7.75;6.25;;;;;6.19;69.00;100767.38;4994908;28;45855;-79
2021/11/29 12:27:04;;;;;;;;;6.00;5.00;;;;;6.21;69.12;100762.91;4995135;28;46143;-80
2021/11/29 12:29:29;;;;;;;;;9.75;8.00;;;;;6.20;69.49;100762.09;4994809;28;46216;-77
2021/11/29 12:32:01;;;;;;;;;5.75;5.75;;;;;6.26;69.32;100758.34;4994907;28;45521;-79
2021/11/29 12:34:48;;;;;;;;;8.00;6.75;;;;;6.30;69.04;100763.31;4994674;28;45942;-79
2021/11/29 12:37:14;;;;;;;;;7.50;6.00;;;;;6.34;68.90;100764.00;4995063;28;46313;-78
2021/11/29 12:39:42;;;;;;;;;8.50;8.00;;;;;6.38;68.85;100770.72;4995260;28;46237;-78